createdAt,value
2019-03-24T00:01:50.150Z,99.90
2019-03-24T00:04:21.130Z,99.90
2019-03-24T00:06:52.071Z,99.90
2019-03-24T00:09:23.041Z,99.90
2019-03-24T00:11:54.032Z,99.90
2019-03-24T00:14:24.993Z,99.90
2019-03-24T00:16:55.954Z,99.90
2019-03-24T00:19:26.946Z,99.90
2019-03-24T00:21:57.875Z,99.90
2019-03-24T00:24:29.344Z,99.90
2019-03-24T00:27:00.440Z,99.90
2019-03-24T00:29:31.789Z,99.90
2019-03-24T00:32:03.884Z,99.90
2019-03-24T00:34:35.038Z,99.90
2019-03-24T00:37:05.985Z,99.90
2019-03-24T00:39:36.964Z,99.90
2019-03-24T00:42:07.900Z,99.90
2019-03-24T00:44:38.879Z,99.90
2019-03-24T00:47:09.827Z,99.90
2019-03-24T00:49:40.812Z,99.90
2019-03-24T00:52:11.752Z,99.90
2019-03-24T00:54:42.748Z,99.90
2019-03-24T00:57:13.697Z,99.90
2019-03-24T00:59:44.774Z,99.90
2019-03-24T01:02:15.748Z,99.90
2019-03-24T01:04:46.810Z,99.90
2019-03-24T01:07:17.761Z,99.90
2019-03-24T01:09:48.739Z,99.90
2019-03-24T01:12:19.675Z,99.90
2019-03-24T01:14:50.649Z,99.90
2019-03-24T01:17:21.674Z,99.90
2019-03-24T01:19:52.650Z,99.90
2019-03-24T01:22:23.606Z,99.90
2019-03-24T01:24:54.580Z,99.90
2019-03-24T01:27:25.531Z,99.90
2019-03-24T01:29:56.503Z,99.90
2019-03-24T01:32:27.508Z,99.90
2019-03-24T01:34:58.577Z,99.90
2019-03-24T01:37:29.523Z,99.90
2019-03-24T01:40:00.496Z,99.90
2019-03-24T01:42:31.461Z,99.90
2019-03-24T01:45:02.435Z,99.90
2019-03-24T01:47:33.402Z,99.90
2019-03-24T01:50:05.976Z,99.90
2019-03-24T01:52:36.919Z,99.90
2019-03-24T01:55:08.222Z,99.90
2019-03-24T01:57:39.185Z,99.90
2019-03-24T02:00:10.456Z,99.90
2019-03-24T02:02:41.397Z,99.90
2019-03-24T02:05:12.458Z,99.90
2019-03-24T02:07:43.440Z,99.90
2019-03-24T02:10:15.108Z,99.90
2019-03-24T02:12:46.071Z,99.90
2019-03-24T02:15:17.354Z,99.90
2019-03-24T02:17:48.245Z,99.90
2019-03-24T02:20:19.230Z,99.90
2019-03-24T02:22:50.193Z,99.90
2019-03-24T02:25:21.221Z,99.90
2019-03-24T02:27:52.259Z,99.90
2019-03-24T02:30:23.207Z,99.90
2019-03-24T02:32:54.188Z,99.90
2019-03-24T02:35:25.139Z,99.90
2019-03-24T02:37:56.148Z,99.90
2019-03-24T02:40:27.173Z,99.90
2019-03-24T02:42:58.146Z,99.90
2019-03-24T02:45:29.117Z,99.90
2019-03-24T02:48:00.144Z,99.90
2019-03-24T02:50:31.092Z,99.90
2019-03-24T02:53:03.066Z,99.90
2019-03-24T02:55:34.034Z,99.90
2019-03-24T02:58:05.015Z,99.90
2019-03-24T03:00:35.962Z,99.90
2019-03-24T03:03:07.015Z,99.90
2019-03-24T03:05:37.954Z,99.90
2019-03-24T03:08:08.928Z,99.90
2019-03-24T03:10:39.883Z,99.90
2019-03-24T03:13:10.854Z,99.90
2019-03-24T03:15:41.803Z,99.90
2019-03-24T03:18:12.778Z,99.90
2019-03-24T03:20:43.722Z,99.90
2019-03-24T03:23:14.715Z,99.90
2019-03-24T03:25:45.751Z,99.90
2019-03-24T03:28:16.696Z,99.90
2019-03-24T03:30:48.696Z,99.90
2019-03-24T03:33:19.781Z,99.90
2019-03-24T03:35:50.832Z,99.90
2019-03-24T03:38:21.799Z,99.90
2019-03-24T03:40:52.821Z,99.90
2019-03-24T03:43:23.812Z,99.90
2019-03-24T03:45:54.836Z,99.90
2019-03-24T03:48:25.963Z,99.90
2019-03-24T03:50:58.042Z,99.90
2019-03-24T03:53:28.991Z,99.90
2019-03-24T03:55:59.974Z,99.90
2019-03-24T03:58:30.989Z,99.90
2019-03-24T04:01:01.972Z,99.90
2019-03-24T04:03:32.920Z,99.90
2019-03-24T04:06:03.915Z,99.90
2019-03-24T04:08:34.924Z,99.90
2019-03-24T04:11:05.918Z,99.90
2019-03-24T04:13:36.858Z,99.90
2019-03-24T04:16:07.832Z,99.90
2019-03-24T04:18:38.779Z,99.90
2019-03-24T04:21:09.802Z,99.90
2019-03-24T04:23:40.920Z,99.90
2019-03-24T04:26:11.903Z,99.90
2019-03-24T04:28:42.845Z,99.90
2019-03-24T04:31:13.904Z,99.90
2019-03-24T04:33:44.955Z,99.90
2019-03-24T04:36:15.993Z,99.90
2019-03-24T04:38:46.961Z,99.90
2019-03-24T04:41:17.917Z,99.90
2019-03-24T04:43:48.896Z,99.90
2019-03-24T04:46:19.832Z,99.90
2019-03-24T04:48:50.817Z,99.90
2019-03-24T04:51:21.764Z,99.90
2019-03-24T04:53:52.746Z,99.90
2019-03-24T04:56:23.689Z,99.90
2019-03-24T04:58:54.666Z,99.90
2019-03-24T05:01:25.608Z,99.90
2019-03-24T05:03:56.593Z,99.90
2019-03-24T05:06:27.786Z,99.90
2019-03-24T05:08:58.812Z,99.90
2019-03-24T05:11:29.761Z,99.90
2019-03-24T05:14:00.732Z,99.90
2019-03-24T05:16:31.677Z,99.90
2019-03-24T05:19:02.650Z,99.90
2019-03-24T05:21:33.626Z,99.90
2019-03-24T05:24:04.605Z,99.90
2019-03-24T05:26:35.559Z,99.90
2019-03-24T05:29:06.528Z,99.90
2019-03-24T05:31:37.465Z,99.90
2019-03-24T05:34:08.438Z,99.90
2019-03-24T05:36:39.522Z,99.90
2019-03-24T05:39:10.463Z,99.90
2019-03-24T05:41:41.428Z,99.90
2019-03-24T05:44:12.384Z,99.90
2019-03-24T05:46:43.349Z,99.90
2019-03-24T05:49:14.294Z,99.90
2019-03-24T05:51:45.380Z,99.90
2019-03-24T05:54:16.328Z,99.90
2019-03-24T05:56:47.302Z,99.90
2019-03-24T05:59:18.251Z,99.90
2019-03-24T06:01:49.230Z,99.90
2019-03-24T06:04:20.177Z,99.90
2019-03-24T06:06:51.154Z,99.90
2019-03-24T06:09:22.173Z,99.90
2019-03-24T06:11:53.157Z,99.90
2019-03-24T06:14:24.098Z,99.90
2019-03-24T06:16:55.081Z,99.90
2019-03-24T06:19:26.073Z,99.90
2019-03-24T06:21:57.008Z,99.90
2019-03-24T06:24:27.986Z,99.90
2019-03-24T06:26:58.929Z,99.90
2019-03-24T06:29:29.912Z,99.90
2019-03-24T06:32:00.848Z,99.90
2019-03-24T06:34:31.950Z,99.90
2019-03-24T06:37:03.036Z,99.90
2019-03-24T06:39:34.016Z,99.90
2019-03-24T06:42:04.959Z,99.90
2019-03-24T06:44:35.924Z,99.90
2019-03-24T06:47:06.867Z,99.90
2019-03-24T06:49:37.838Z,99.90
2019-03-24T06:52:08.780Z,99.90
2019-03-24T06:54:39.824Z,99.90
2019-03-24T06:57:10.764Z,99.90
2019-03-24T06:59:41.739Z,99.90
2019-03-24T07:02:12.686Z,99.90
2019-03-24T07:04:43.727Z,99.90
2019-03-24T07:07:14.669Z,99.90
2019-03-24T07:09:45.639Z,99.90
2019-03-24T07:12:16.589Z,99.90
2019-03-24T07:14:47.559Z,99.90
2019-03-24T07:17:18.530Z,99.90
2019-03-24T07:19:49.488Z,99.90
2019-03-24T07:22:21.206Z,99.90
2019-03-24T07:24:52.139Z,99.90
2019-03-24T07:27:23.248Z,99.90
2019-03-24T07:29:54.188Z,99.90
2019-03-24T07:32:25.147Z,99.90
2019-03-24T07:34:56.087Z,99.90
2019-03-24T07:37:27.059Z,99.90
2019-03-24T07:39:58.003Z,99.90
2019-03-24T07:42:30.087Z,99.90
2019-03-24T07:45:01.032Z,99.90
2019-03-24T07:47:33.102Z,99.90
2019-03-24T07:50:06.111Z,99.90
2019-03-24T07:52:37.087Z,99.90
2019-03-24T07:55:08.687Z,99.90
2019-03-24T07:57:39.651Z,99.90
2019-03-24T08:00:12.390Z,99.90
2019-03-24T08:02:51.298Z,99.90
2019-03-24T08:05:20.513Z,99.90
2019-03-24T08:07:51.485Z,99.90
2019-03-24T08:10:22.430Z,99.90
2019-03-24T08:12:53.496Z,99.90
2019-03-24T08:15:24.615Z,99.90
2019-03-24T08:17:55.593Z,99.90
2019-03-24T08:20:26.529Z,99.90
2019-03-24T08:22:57.502Z,99.90
2019-03-24T08:25:28.481Z,99.90
2019-03-24T08:27:59.424Z,99.90
2019-03-24T08:30:35.778Z,99.90
2019-03-24T08:33:06.959Z,99.90
2019-03-24T08:35:37.944Z,99.90
2019-03-24T08:38:08.890Z,99.90
2019-03-24T08:40:39.881Z,99.90
2019-03-24T08:43:11.829Z,99.90
2019-03-24T08:45:42.826Z,99.90
2019-03-24T08:48:13.788Z,99.90
2019-03-24T08:50:44.813Z,99.90
2019-03-24T08:53:15.757Z,99.90
2019-03-24T08:55:46.779Z,99.90
2019-03-24T08:58:17.768Z,99.90
2019-03-24T09:00:48.822Z,99.90
2019-03-24T09:03:19.845Z,99.90
2019-03-24T09:05:50.866Z,99.90
2019-03-24T09:08:21.816Z,99.90
2019-03-24T09:10:52.796Z,99.90
2019-03-24T09:13:23.779Z,99.90
2019-03-24T09:15:54.741Z,99.90
2019-03-24T09:18:25.720Z,99.90
2019-03-24T09:20:56.698Z,99.90
2019-03-24T09:23:28.736Z,99.90
2019-03-24T09:25:59.698Z,99.90
2019-03-24T09:28:30.677Z,99.90
2019-03-24T09:31:02.616Z,99.90
2019-03-24T09:33:33.716Z,99.90
2019-03-24T09:36:04.667Z,99.90
2019-03-24T09:38:35.652Z,99.90
2019-03-24T09:41:07.807Z,99.90
2019-03-24T09:43:38.788Z,99.20
2019-03-24T09:46:09.735Z,98.00
2019-03-24T09:48:40.749Z,96.70
2019-03-24T09:51:11.739Z,95.70
2019-03-24T09:53:42.735Z,95.10
2019-03-24T09:56:13.735Z,94.00
2019-03-24T09:58:44.819Z,94.00
2019-03-24T10:01:15.768Z,92.90
2019-03-24T10:03:46.853Z,91.90
2019-03-24T10:06:17.897Z,92.20
2019-03-24T10:08:48.853Z,92.30
2019-03-24T10:11:19.840Z,92.80
2019-03-24T10:13:50.990Z,90.30
2019-03-24T10:16:21.976Z,88.10
2019-03-24T10:18:53.025Z,76.50
2019-03-24T10:21:24.080Z,63.90
2019-03-24T10:23:55.030Z,52.80
2019-03-24T10:26:26.060Z,44.80
2019-03-24T10:28:57.065Z,39.50
2019-03-24T10:31:28.049Z,36.70
2019-03-24T10:33:59.001Z,33.90
2019-03-24T10:36:29.996Z,31.20
2019-03-24T10:39:01.017Z,29.60
2019-03-24T10:41:31.998Z,29.30
2019-03-24T10:44:02.958Z,29.70
2019-03-24T10:46:34.027Z,28.30
2019-03-24T10:49:04.973Z,28.40
2019-03-24T10:51:35.962Z,29.10
2019-03-24T10:54:06.916Z,27.50
2019-03-24T10:56:39.149Z,27.50
2019-03-24T10:59:10.131Z,27.60
2019-03-24T11:01:41.118Z,27.70
2019-03-24T11:04:12.089Z,28.90
2019-03-24T11:06:43.141Z,28.40
2019-03-24T11:09:14.240Z,28.50
2019-03-24T11:11:45.223Z,28.20
2019-03-24T11:14:16.205Z,28.20
2019-03-24T11:16:47.164Z,27.40
2019-03-24T11:19:18.141Z,26.60
2019-03-24T11:21:49.096Z,26.90
2019-03-24T11:24:20.074Z,26.10
2019-03-24T11:26:51.028Z,25.90
2019-03-24T11:29:22.011Z,25.20
2019-03-24T11:31:52.960Z,25.50
2019-03-24T11:34:23.945Z,26.50
2019-03-24T11:36:55.989Z,26.80
2019-03-24T11:39:26.974Z,24.90
2019-03-24T11:41:57.924Z,24.00
2019-03-24T11:44:28.968Z,24.90
2019-03-24T11:46:59.924Z,24.10
2019-03-24T11:49:30.922Z,24.30
2019-03-24T11:52:01.867Z,24.70
2019-03-24T11:54:33.870Z,25.60
2019-03-24T11:57:04.990Z,25.60
2019-03-24T11:59:37.055Z,24.20
2019-03-24T12:02:09.390Z,24.80
2019-03-24T12:04:40.414Z,24.10
2019-03-24T12:07:11.363Z,24.70
2019-03-24T12:09:42.440Z,23.40
2019-03-24T12:12:13.508Z,23.50
2019-03-24T12:14:44.555Z,23.30
2019-03-24T12:17:15.601Z,23.60
2019-03-24T12:19:56.488Z,23.60
2019-03-24T12:22:19.270Z,24.20
2019-03-24T12:24:51.256Z,24.70
2019-03-24T12:27:22.201Z,24.60
2019-03-24T12:29:53.177Z,24.50
2019-03-24T12:32:24.125Z,24.60
2019-03-24T12:34:55.106Z,25.10
2019-03-24T12:37:26.053Z,26.00
2019-03-24T12:39:58.056Z,25.70
2019-03-24T12:42:30.857Z,24.70
2019-03-24T12:45:01.840Z,24.40
2019-03-24T12:47:32.890Z,24.10
2019-03-24T12:50:09.366Z,24.20
2019-03-24T12:52:38.257Z,24.90
2019-03-24T12:55:09.641Z,24.80
2019-03-24T12:57:40.593Z,25.10
2019-03-24T13:00:18.883Z,24.60
2019-03-24T13:02:49.840Z,24.90
2019-03-24T13:05:20.924Z,24.80
2019-03-24T13:07:52.488Z,24.60
2019-03-24T13:10:23.527Z,25.30
2019-03-24T13:12:54.522Z,25.50
2019-03-24T13:15:25.507Z,25.60
2019-03-24T13:17:56.461Z,25.80
2019-03-24T13:20:37.824Z,25.20
2019-03-24T13:23:00.104Z,25.10
2019-03-24T13:25:31.257Z,24.60
2019-03-24T13:28:02.204Z,24.70
2019-03-24T13:30:33.183Z,25.40
2019-03-24T13:33:04.338Z,25.60
2019-03-24T13:35:35.325Z,25.10
2019-03-24T13:38:06.291Z,25.50
2019-03-24T13:40:37.340Z,25.60
2019-03-24T13:43:08.297Z,25.60
2019-03-24T13:45:39.272Z,25.40
2019-03-24T13:48:10.240Z,25.50
2019-03-24T13:50:41.288Z,26.30
2019-03-24T13:53:12.238Z,26.40
2019-03-24T13:55:43.215Z,25.80
2019-03-24T13:58:14.245Z,25.90
2019-03-24T14:00:45.333Z,26.00
2019-03-24T14:03:16.326Z,26.20
2019-03-24T14:05:48.342Z,26.10
2019-03-24T14:08:20.276Z,26.40
2019-03-24T14:10:51.252Z,28.00
2019-03-24T14:13:22.285Z,28.30
2019-03-24T14:15:53.274Z,28.30
2019-03-24T14:18:24.423Z,27.80
2019-03-24T14:20:55.431Z,27.40
2019-03-24T14:23:26.451Z,27.00
2019-03-24T14:25:57.444Z,26.90
2019-03-24T14:28:28.394Z,27.10
2019-03-24T14:30:59.545Z,27.00
2019-03-24T14:33:30.545Z,27.10
2019-03-24T14:36:01.563Z,26.80
2019-03-24T14:38:32.552Z,27.10
2019-03-24T14:41:04.531Z,27.20
2019-03-24T14:43:35.566Z,27.50
2019-03-24T14:46:08.073Z,26.80
2019-03-24T14:48:39.083Z,26.40
2019-03-24T14:51:10.065Z,26.80
2019-03-24T14:53:41.082Z,26.80
2019-03-24T14:56:12.051Z,27.20
2019-03-24T14:58:43.022Z,27.40
2019-03-24T15:01:13.976Z,27.00
2019-03-24T15:03:45.152Z,27.30
2019-03-24T15:06:16.122Z,27.40
2019-03-24T15:08:47.169Z,27.60
2019-03-24T15:11:18.213Z,27.80
2019-03-24T15:13:49.285Z,27.40
2019-03-24T15:16:20.398Z,28.60
2019-03-24T15:18:51.539Z,27.70
2019-03-24T15:21:22.542Z,27.70
2019-03-24T15:23:53.582Z,27.90
2019-03-24T15:26:24.569Z,28.00
2019-03-24T15:28:55.516Z,28.20
2019-03-24T15:31:27.895Z,29.20
2019-03-24T15:33:58.858Z,29.40
2019-03-24T15:36:29.845Z,30.60
2019-03-24T15:39:00.790Z,31.60
2019-03-24T15:41:32.274Z,32.50
2019-03-24T15:44:03.242Z,32.90
2019-03-24T15:46:34.306Z,32.90
2019-03-24T15:49:05.257Z,33.30
2019-03-24T15:51:36.368Z,33.50
2019-03-24T15:54:07.394Z,33.30
2019-03-24T15:56:38.363Z,34.40
2019-03-24T15:59:10.319Z,34.50
2019-03-24T16:01:41.336Z,35.10
2019-03-24T16:04:12.289Z,34.90
2019-03-24T16:06:43.466Z,34.90
2019-03-24T16:09:14.508Z,34.90
2019-03-24T16:11:45.502Z,35.00
2019-03-24T16:14:16.484Z,35.40
2019-03-24T16:16:47.541Z,35.50
2019-03-24T16:19:18.574Z,36.70
2019-03-24T16:21:49.541Z,37.00
2019-03-24T16:24:20.505Z,37.20
2019-03-24T16:26:51.458Z,37.50
2019-03-24T16:29:22.426Z,37.40
2019-03-24T16:31:53.452Z,38.00
2019-03-24T16:34:24.435Z,38.20
2019-03-24T16:36:55.384Z,38.70
2019-03-24T16:39:26.394Z,39.10
2019-03-24T16:41:56.378Z,39.20
2019-03-24T16:44:30.098Z,39.00
2019-03-24T16:47:01.153Z,40.10
2019-03-24T16:49:32.142Z,40.60
2019-03-24T16:52:03.088Z,41.50
2019-03-24T16:54:34.141Z,42.50
2019-03-24T16:57:05.088Z,44.10
2019-03-24T16:59:36.105Z,44.50
2019-03-24T17:02:07.249Z,45.10
2019-03-24T17:04:38.250Z,45.70
2019-03-24T17:07:09.314Z,46.20
2019-03-24T17:09:40.371Z,47.00
2019-03-24T17:12:11.355Z,47.90
2019-03-24T17:14:42.308Z,48.70
2019-03-24T17:17:13.291Z,49.40
2019-03-24T17:19:44.329Z,49.70
2019-03-24T17:22:15.310Z,50.30
2019-03-24T17:24:46.367Z,51.00
2019-03-24T17:27:17.362Z,51.70
2019-03-24T17:29:48.382Z,53.80
2019-03-24T17:32:19.370Z,53.20
2019-03-24T17:34:50.325Z,54.10
2019-03-24T17:37:21.306Z,54.60
2019-03-24T17:39:52.263Z,55.40
2019-03-24T17:42:23.241Z,55.80
2019-03-24T17:44:54.205Z,56.80
2019-03-24T17:47:25.226Z,57.40
2019-03-24T17:49:56.227Z,58.00
2019-03-24T17:52:27.145Z,58.80
2019-03-24T17:54:58.771Z,59.60
2019-03-24T17:57:29.777Z,60.30
2019-03-24T18:00:02.082Z,60.80
2019-03-24T18:02:33.166Z,61.40
2019-03-24T18:05:04.762Z,62.70
2019-03-24T18:07:35.718Z,62.70
2019-03-24T18:10:08.696Z,63.70
2019-03-24T18:12:39.651Z,64.60
2019-03-24T18:15:11.659Z,66.50
2019-03-24T18:17:42.610Z,68.50
2019-03-24T18:20:19.088Z,70.00
2019-03-24T18:22:50.039Z,72.90
2019-03-24T18:25:21.075Z,74.30
2019-03-24T18:27:52.026Z,77.80
2019-03-24T18:30:23.120Z,81.70
2019-03-24T18:32:54.076Z,86.20
2019-03-24T18:35:25.058Z,90.70
2019-03-24T18:37:56.007Z,93.00
2019-03-24T18:40:26.991Z,95.40
2019-03-24T18:42:58.151Z,97.30
2019-03-24T18:45:29.133Z,99.50
2019-03-24T18:48:00.089Z,99.90
2019-03-24T18:50:31.080Z,99.90
2019-03-24T18:53:02.279Z,99.90
2019-03-24T18:55:33.291Z,99.90
2019-03-24T18:58:05.491Z,99.90
2019-03-24T19:00:36.475Z,99.90
2019-03-24T19:03:07.470Z,99.90
2019-03-24T19:05:39.424Z,99.90
2019-03-24T19:08:10.429Z,99.90
2019-03-24T19:10:41.369Z,99.90
2019-03-24T19:13:12.361Z,99.90
2019-03-24T19:15:46.294Z,99.90
2019-03-24T19:18:17.360Z,99.90
2019-03-24T19:20:49.363Z,99.90
2019-03-24T19:23:20.404Z,99.90
2019-03-24T19:25:51.454Z,99.90
2019-03-24T19:28:22.443Z,99.90
2019-03-24T19:30:53.414Z,99.90
2019-03-24T19:33:24.533Z,99.90
2019-03-24T19:35:55.525Z,99.90
2019-03-24T19:38:26.641Z,99.90
2019-03-24T19:40:57.591Z,99.90
2019-03-24T19:43:28.584Z,99.90
2019-03-24T19:45:59.586Z,99.90
2019-03-24T19:48:31.765Z,99.90
2019-03-24T19:51:02.783Z,99.90
2019-03-24T19:53:33.886Z,99.90
2019-03-24T19:56:08.055Z,99.90
2019-03-24T19:58:39.034Z,99.90
2019-03-24T20:01:10.027Z,99.90
2019-03-24T20:03:43.393Z,99.90
2019-03-24T20:06:13.654Z,99.90
2019-03-24T20:08:44.600Z,99.90
2019-03-24T20:11:16.698Z,99.90
2019-03-24T20:13:47.667Z,99.90
2019-03-24T20:16:18.734Z,99.90
2019-03-24T20:18:49.681Z,99.90
2019-03-24T20:21:20.992Z,99.90
2019-03-24T20:23:52.006Z,99.90
2019-03-24T20:26:22.997Z,99.90
2019-03-24T20:28:54.042Z,99.90
2019-03-24T20:31:25.259Z,99.90
2019-03-24T20:33:56.276Z,99.90
2019-03-24T20:36:27.241Z,99.90
2019-03-24T20:38:58.228Z,99.90
2019-03-24T20:41:29.186Z,99.90
2019-03-24T20:44:00.177Z,99.90
2019-03-24T20:46:31.127Z,99.90
2019-03-24T20:49:02.141Z,99.90
2019-03-24T20:51:33.220Z,99.90
2019-03-24T20:54:04.371Z,99.90
2019-03-24T20:56:35.471Z,99.90
2019-03-24T20:59:06.457Z,99.90
2019-03-24T21:01:37.420Z,99.90
2019-03-24T21:04:08.457Z,99.90
2019-03-24T21:06:39.444Z,99.90
2019-03-24T21:09:10.891Z,99.90
2019-03-24T21:11:42.045Z,99.90
2019-03-24T21:14:13.033Z,99.90
2019-03-24T21:16:43.983Z,99.90
2019-03-24T21:19:14.973Z,99.90
2019-03-24T21:21:45.916Z,99.90
2019-03-24T21:24:16.888Z,99.90
2019-03-24T21:26:48.975Z,99.90
2019-03-24T21:29:19.953Z,99.90
2019-03-24T21:31:50.931Z,99.90
2019-03-24T21:34:21.890Z,99.90
2019-03-24T21:36:52.931Z,99.90
2019-03-24T21:39:26.223Z,99.90
2019-03-24T21:41:57.436Z,99.90
2019-03-24T21:44:28.391Z,99.90
2019-03-24T21:46:59.382Z,99.90
2019-03-24T21:49:31.333Z,99.90
2019-03-24T21:52:02.306Z,99.90
2019-03-24T21:54:33.254Z,99.90
2019-03-24T21:57:04.380Z,99.90
2019-03-24T21:59:35.326Z,99.90
2019-03-24T22:02:06.393Z,99.90
2019-03-24T22:04:37.321Z,99.90
2019-03-24T22:07:08.291Z,99.90
2019-03-24T22:09:39.335Z,99.90
2019-03-24T22:12:10.472Z,99.90
2019-03-24T22:14:41.427Z,99.90
2019-03-24T22:17:12.410Z,99.90
2019-03-24T22:19:44.346Z,99.90
2019-03-24T22:22:15.340Z,99.90
2019-03-24T22:24:46.290Z,99.90
2019-03-24T22:27:17.268Z,99.90
2019-03-24T22:29:48.191Z,99.90
2019-03-24T22:32:20.266Z,99.90
2019-03-24T22:34:51.245Z,99.90
2019-03-24T22:37:23.382Z,99.90
2019-03-24T22:39:54.528Z,99.90
2019-03-24T22:42:25.818Z,99.90
2019-03-24T22:44:56.899Z,99.90
2019-03-24T22:47:27.860Z,99.90
2019-03-24T22:49:58.833Z,99.90
2019-03-24T22:52:29.862Z,99.90
2019-03-24T22:55:00.856Z,99.90
2019-03-24T22:57:32.758Z,99.90
2019-03-24T23:00:04.818Z,99.90
2019-03-24T23:02:36.168Z,99.90
2019-03-24T23:05:07.631Z,99.90
2019-03-24T23:07:38.606Z,99.90
2019-03-24T23:10:09.598Z,99.90
2019-03-24T23:12:40.566Z,99.90
2019-03-24T23:15:11.839Z,99.90
2019-03-24T23:17:42.786Z,99.90
2019-03-24T23:20:13.765Z,99.90
2019-03-24T23:22:44.703Z,99.90
2019-03-24T23:25:15.675Z,99.90
2019-03-24T23:27:46.614Z,99.90
2019-03-24T23:30:18.121Z,99.90
2019-03-24T23:32:49.119Z,99.90
2019-03-24T23:35:21.264Z,99.90
2019-03-24T23:37:52.382Z,99.90
2019-03-24T23:40:23.658Z,99.90
2019-03-24T23:42:54.663Z,99.90
2019-03-24T23:45:25.645Z,99.90
2019-03-24T23:47:56.595Z,99.90
2019-03-24T23:50:27.673Z,99.90
2019-03-24T23:52:58.731Z,99.90
2019-03-24T23:55:29.704Z,99.90
2019-03-24T23:58:00.656Z,99.90
